createdAt,value
2023-03-08T00:01:52.925Z,45.55
2023-03-08T00:04:22.303Z,31.20
2023-03-08T00:06:51.673Z,33.33
2023-03-08T00:09:20.994Z,37.55
2023-03-08T00:11:50.242Z,33.58
2023-03-08T00:14:21.000Z,37.20
2023-03-08T00:16:50.316Z,38.70
2023-03-08T00:19:19.602Z,37.58
2023-03-08T00:21:48.851Z,41.48
2023-03-08T00:24:19.800Z,44.03
2023-03-08T00:26:49.035Z,42.67
2023-03-08T00:29:18.410Z,42.70
2023-03-08T00:31:47.773Z,46.08
2023-03-08T00:34:17.588Z,45.80
2023-03-08T00:36:46.839Z,48.70
2023-03-08T00:39:17.785Z,49.98
2023-03-08T00:41:47.054Z,50.15
2023-03-08T00:44:16.308Z,45.92
2023-03-08T00:46:45.636Z,53.48
2023-03-08T00:49:15.668Z,52.60
2023-03-08T00:51:44.920Z,60.30
2023-03-08T00:54:14.229Z,52.67
2023-03-08T00:56:43.452Z,55.52
2023-03-08T00:59:12.803Z,62.05
2023-03-08T01:01:42.650Z,68.45
2023-03-08T01:04:13.160Z,66.40
2023-03-08T01:06:44.168Z,74.90
2023-03-08T01:09:13.620Z,76.02
2023-03-08T01:11:44.233Z,75.25
2023-03-08T01:16:43.579Z,80.90
2023-03-08T01:19:12.824Z,81.37
2023-03-08T01:21:43.886Z,83.72
2023-03-08T01:24:13.590Z,88.03
2023-03-08T01:26:42.855Z,81.17
2023-03-08T01:29:12.589Z,84.30
2023-03-08T01:31:41.835Z,97.08
2023-03-08T01:34:11.240Z,87.70
2023-03-08T01:36:40.542Z,87.10
2023-03-08T01:39:09.946Z,88.03
2023-03-08T01:41:40.159Z,90.83
2023-03-08T01:44:17.320Z,85.70
2023-03-08T01:46:47.094Z,97.02
2023-03-08T01:49:24.163Z,93.87
2023-03-08T01:51:57.285Z,98.35
2023-03-08T01:54:47.269Z,95.15
2023-03-08T01:57:22.383Z,102.10
2023-03-08T01:59:52.777Z,107.37
2023-03-08T02:02:27.199Z,104.87
2023-03-08T02:04:56.053Z,104.20
2023-03-08T02:07:26.386Z,111.45
2023-03-08T02:09:56.087Z,117.40
2023-03-08T02:12:25.542Z,107.32
2023-03-08T02:14:55.083Z,108.25
2023-03-08T02:17:24.578Z,110.78
2023-03-08T02:20:03.168Z,113.12
2023-03-08T02:22:32.458Z,109.72
2023-03-08T02:25:01.728Z,107.60
2023-03-08T02:27:30.964Z,109.97
2023-03-08T02:30:03.627Z,113.08
2023-03-08T02:32:34.054Z,116.28
2023-03-08T02:35:03.529Z,126.35
2023-03-08T02:37:33.909Z,120.17
2023-03-08T02:40:04.894Z,121.57
2023-03-08T02:42:34.287Z,129.20
2023-03-08T02:45:03.573Z,123.65
2023-03-08T02:47:34.033Z,130.18
2023-03-08T02:50:03.517Z,119.08
2023-03-08T02:52:32.938Z,136.28
2023-03-08T02:55:02.269Z,131.67
2023-03-08T02:57:31.679Z,127.40
2023-03-08T03:00:00.988Z,138.15
2023-03-08T03:02:30.707Z,129.90
2023-03-08T03:05:00.621Z,127.38
2023-03-08T03:07:30.272Z,121.82
2023-03-08T03:09:59.588Z,127.58
2023-03-08T03:12:29.025Z,117.03
2023-03-08T03:14:58.506Z,134.55
2023-03-08T03:17:27.830Z,142.82
2023-03-08T03:19:57.248Z,123.82
2023-03-08T03:22:26.481Z,155.82
2023-03-08T03:24:55.867Z,155.50
2023-03-08T03:27:25.606Z,159.12
2023-03-08T03:29:55.738Z,162.07
2023-03-08T03:32:25.563Z,196.45
2023-03-08T03:34:55.174Z,211.90
2023-03-08T03:37:24.684Z,199.85
2023-03-08T03:39:54.322Z,213.35
2023-03-08T03:42:23.726Z,308.68
2023-03-08T03:44:54.733Z,288.35
2023-03-08T03:47:24.206Z,280.52
2023-03-08T03:49:55.198Z,353.67
2023-03-08T03:52:24.848Z,379.98
2023-03-08T03:54:58.626Z,413.10
2023-03-08T03:57:28.146Z,387.55
2023-03-08T03:59:58.671Z,366.38
2023-03-08T04:02:29.538Z,372.93
2023-03-08T04:05:00.553Z,398.05
2023-03-08T04:07:31.364Z,482.45
2023-03-08T04:10:01.896Z,381.32
2023-03-08T04:12:32.278Z,460.02
2023-03-08T04:15:01.606Z,521.85
2023-03-08T04:17:32.689Z,569.35
2023-03-08T04:20:01.914Z,607.90
2023-03-08T04:22:33.163Z,677.65
2023-03-08T04:25:04.759Z,623.90
2023-03-08T04:27:35.721Z,600.65
2023-03-08T04:30:06.650Z,570.17
2023-03-08T04:32:36.868Z,523.17
2023-03-08T04:35:07.625Z,685.78
2023-03-08T04:37:37.727Z,470.92
2023-03-08T04:40:09.939Z,487.75
2023-03-08T04:42:41.046Z,386.10
2023-03-08T04:45:11.897Z,451.22
2023-03-08T04:47:41.448Z,602.17
2023-03-08T04:50:12.556Z,624.80
2023-03-08T04:52:42.310Z,496.20
2023-03-08T04:55:12.393Z,727.45
2023-03-08T04:57:41.830Z,695.73
2023-03-08T05:00:12.480Z,603.20
2023-03-08T05:02:42.813Z,379.90
2023-03-08T05:05:13.960Z,465.75
2023-03-08T05:07:43.743Z,455.63
2023-03-08T05:10:13.551Z,493.60
2023-03-08T05:12:43.169Z,532.80
2023-03-08T05:15:12.869Z,423.60
2023-03-08T05:17:42.134Z,648.20
2023-03-08T05:20:12.427Z,345.42
2023-03-08T05:22:57.353Z,366.73
2023-03-08T05:25:13.994Z,396.05
2023-03-08T05:27:43.844Z,380.65
2023-03-08T05:30:14.041Z,354.32
2023-03-08T05:32:43.413Z,485.55
2023-03-08T05:35:13.148Z,372.73
2023-03-08T05:37:42.776Z,359.83
2023-03-08T05:40:13.934Z,323.62
2023-03-08T05:42:44.558Z,431.32
2023-03-08T05:45:15.422Z,367.32
2023-03-08T05:47:46.093Z,275.20
2023-03-08T05:50:15.354Z,358.73
2023-03-08T05:52:45.482Z,226.22
2023-03-08T05:55:16.529Z,235.93
2023-03-08T05:57:46.169Z,270.35
2023-03-08T06:00:17.159Z,242.10
2023-03-08T06:02:48.210Z,193.37
2023-03-08T06:05:17.527Z,175.78
2023-03-08T06:07:47.830Z,170.22
2023-03-08T06:10:18.163Z,167.98
2023-03-08T06:12:47.875Z,188.52
2023-03-08T06:15:18.028Z,176.82
2023-03-08T06:17:47.360Z,165.80
2023-03-08T06:20:18.471Z,167.95
2023-03-08T06:22:49.660Z,157.22
2023-03-08T06:25:20.844Z,163.52
2023-03-08T06:27:50.521Z,146.28
2023-03-08T06:30:33.472Z,148.35
2023-03-08T06:33:04.442Z,137.37
2023-03-08T06:35:34.288Z,136.40
2023-03-08T06:38:04.084Z,137.97
2023-03-08T06:40:34.003Z,113.77
2023-03-08T06:43:03.248Z,117.00
2023-03-08T06:45:34.448Z,106.75
2023-03-08T06:48:03.705Z,111.68
2023-03-08T06:50:34.992Z,97.02
2023-03-08T06:53:04.449Z,94.55
2023-03-08T06:55:42.340Z,85.53
2023-03-08T06:58:11.635Z,77.85
2023-03-08T07:00:41.060Z,85.95
2023-03-08T07:03:11.040Z,80.03
2023-03-08T07:05:40.924Z,70.15
2023-03-08T07:08:10.222Z,76.02
2023-03-08T07:10:39.471Z,70.03
2023-03-08T07:13:08.672Z,68.20
2023-03-08T07:15:40.729Z,69.25
2023-03-08T07:18:10.185Z,64.90
2023-03-08T07:20:39.445Z,74.92
2023-03-08T07:23:08.688Z,73.67
2023-03-08T07:25:42.849Z,79.00
2023-03-08T07:28:12.051Z,73.17
2023-03-08T07:30:41.645Z,75.08
2023-03-08T07:33:13.132Z,73.65
2023-03-08T07:35:42.407Z,75.50
2023-03-08T07:38:13.436Z,68.92
2023-03-08T07:40:42.989Z,76.55
2023-03-08T07:43:12.777Z,72.32
2023-03-08T07:45:49.853Z,72.47
2023-03-08T07:48:19.113Z,67.35
2023-03-08T07:50:49.030Z,61.25
2023-03-08T07:53:18.242Z,60.85
2023-03-08T07:55:47.774Z,63.15
2023-03-08T07:58:17.040Z,59.80
2023-03-08T08:00:46.335Z,66.80
2023-03-08T08:03:15.651Z,60.85
2023-03-08T08:05:45.040Z,59.48
2023-03-08T08:08:14.527Z,59.30
2023-03-08T08:10:44.218Z,52.43
2023-03-08T08:13:13.643Z,53.15
2023-03-08T08:15:42.902Z,57.10
2023-03-08T08:18:12.134Z,61.02
2023-03-08T08:20:41.571Z,51.65
2023-03-08T08:23:10.765Z,52.48
2023-03-08T08:25:40.884Z,54.60
2023-03-08T08:28:10.110Z,52.53
2023-03-08T08:30:39.376Z,53.33
2023-03-08T08:33:08.636Z,51.73
2023-03-08T08:35:43.575Z,56.70
2023-03-08T08:38:12.960Z,51.48
2023-03-08T08:40:42.227Z,46.83
2023-03-08T08:43:11.512Z,47.60
2023-03-08T08:45:46.025Z,50.60
2023-03-08T08:48:15.802Z,50.17
2023-03-08T08:50:45.022Z,51.77
2023-03-08T08:53:14.298Z,53.28
2023-03-08T08:55:45.569Z,48.13
2023-03-08T08:58:15.207Z,47.65
2023-03-08T09:00:45.345Z,48.42
2023-03-08T09:03:14.693Z,45.50
2023-03-08T09:05:45.866Z,42.78
2023-03-08T09:08:15.458Z,46.98
2023-03-08T09:10:44.691Z,38.28
2023-03-08T09:13:14.228Z,37.30
2023-03-08T09:15:43.540Z,43.10
2023-03-08T09:18:12.778Z,41.42
2023-03-08T09:20:42.003Z,37.20
2023-03-08T09:23:11.356Z,39.55
2023-03-08T09:25:40.591Z,39.95
2023-03-08T09:28:10.316Z,38.88
2023-03-08T09:30:39.786Z,41.30
2023-03-08T09:33:09.182Z,38.08
2023-03-08T09:35:38.510Z,44.60
2023-03-08T09:38:07.869Z,46.65
2023-03-08T09:40:40.330Z,47.33
2023-03-08T09:45:41.319Z,43.52
2023-03-08T09:48:23.082Z,42.10
2023-03-08T09:50:58.200Z,37.45
2023-03-08T09:53:42.386Z,42.50
2023-03-08T09:56:14.807Z,37.78
2023-03-08T10:01:17.334Z,36.03
2023-03-08T10:07:00.079Z,33.25
2023-03-08T10:09:33.429Z,39.42
2023-03-08T10:12:12.799Z,36.30
2023-03-08T10:14:39.958Z,38.13
2023-03-08T10:19:48.957Z,34.48
2023-03-08T10:24:51.517Z,36.17
2023-03-08T10:27:23.198Z,45.00
2023-03-08T10:30:00.039Z,41.13
2023-03-08T10:32:30.144Z,43.98
2023-03-08T10:35:04.792Z,45.83
2023-03-08T10:37:34.717Z,39.73
2023-03-08T10:40:09.450Z,44.42
2023-03-08T10:42:38.945Z,41.90
2023-03-08T10:45:20.209Z,41.75
2023-03-08T10:47:57.635Z,43.70
2023-03-08T10:50:29.457Z,42.00
2023-03-08T10:53:13.954Z,40.78
2023-03-08T10:55:46.315Z,39.10
2023-03-08T10:58:37.262Z,38.35
2023-03-08T11:01:29.088Z,38.20
2023-03-08T11:04:07.049Z,44.30
2023-03-08T11:06:36.433Z,39.65
2023-03-08T11:09:08.816Z,38.33
2023-03-08T11:11:44.278Z,39.48
2023-03-08T11:14:13.600Z,36.68
2023-03-08T11:17:03.807Z,39.53
2023-03-08T11:19:45.082Z,44.25
2023-03-08T11:22:32.117Z,42.23
2023-03-08T11:25:19.551Z,38.53
2023-03-08T11:28:01.246Z,40.55
2023-03-08T11:30:49.823Z,30.73
2023-03-08T11:33:41.997Z,29.50
2023-03-08T11:36:33.676Z,27.45
2023-03-08T11:39:15.004Z,30.02
2023-03-08T11:41:50.087Z,31.70
2023-03-08T11:44:33.666Z,34.73
2023-03-08T11:47:43.985Z,32.35
2023-03-08T11:50:30.741Z,37.08
2023-03-08T11:53:06.159Z,34.10
2023-03-08T11:55:55.252Z,33.73
2023-03-08T11:58:30.315Z,34.90
2023-03-08T12:01:04.520Z,36.03
2023-03-08T12:03:39.402Z,31.77
2023-03-08T12:06:28.219Z,29.95
2023-03-08T12:09:10.891Z,28.87
2023-03-08T12:11:42.390Z,27.27
2023-03-08T12:14:17.781Z,25.00
2023-03-08T12:16:50.371Z,29.98
2023-03-08T12:19:28.855Z,25.97
2023-03-08T12:22:20.802Z,27.10
2023-03-08T12:25:08.500Z,24.93
2023-03-08T12:27:43.921Z,29.85
2023-03-08T12:30:16.253Z,25.97
2023-03-08T12:32:47.588Z,27.10
2023-03-08T12:35:34.784Z,27.63
2023-03-08T12:38:08.859Z,26.50
2023-03-08T12:40:47.217Z,27.55
2023-03-08T12:43:22.624Z,25.40
2023-03-08T12:46:04.368Z,25.60
2023-03-08T12:48:46.009Z,23.40
2023-03-08T12:51:18.484Z,25.57
2023-03-08T12:56:34.135Z,25.05
2023-03-08T12:59:12.334Z,27.60
2023-03-08T13:01:47.913Z,24.02
2023-03-08T13:04:42.427Z,27.73
2023-03-08T13:07:14.728Z,25.65
2023-03-08T13:12:21.858Z,26.50
2023-03-08T13:15:03.085Z,26.35
2023-03-08T13:17:39.364Z,25.62
2023-03-08T13:20:14.991Z,24.23
2023-03-08T13:22:50.237Z,24.00
2023-03-08T13:25:35.009Z,25.32
2023-03-08T13:28:15.928Z,22.35
2023-03-08T13:30:49.819Z,22.10
2023-03-08T13:33:24.697Z,22.65
2023-03-08T13:36:10.915Z,21.68
2023-03-08T13:38:40.242Z,23.40
2023-03-08T13:41:09.465Z,26.20
2023-03-08T13:43:39.324Z,20.70
2023-03-08T13:46:11.877Z,22.42
2023-03-08T13:48:44.530Z,19.92
2023-03-08T13:51:17.959Z,21.27
2023-03-08T13:53:48.078Z,20.37
2023-03-08T13:56:28.572Z,18.02
2023-03-08T13:58:59.041Z,19.20
2023-03-08T14:01:28.570Z,19.82
2023-03-08T14:03:59.042Z,23.65
2023-03-08T14:06:36.672Z,17.32
2023-03-08T14:09:07.329Z,16.40
2023-03-08T14:11:39.386Z,18.90
2023-03-08T14:14:11.829Z,16.62
2023-03-08T14:16:42.273Z,20.92
2023-03-08T14:19:15.121Z,19.87
2023-03-08T14:22:05.642Z,16.10
2023-03-08T14:24:36.316Z,19.20
2023-03-08T14:27:09.071Z,16.82
2023-03-08T14:29:38.421Z,16.05
2023-03-08T14:32:14.309Z,16.07
2023-03-08T14:34:49.842Z,17.12
2023-03-08T14:37:30.380Z,17.02
2023-03-08T14:40:26.724Z,16.45
2023-03-08T14:43:02.579Z,16.87
2023-03-08T14:45:34.908Z,20.05
2023-03-08T14:48:23.484Z,16.00
2023-03-08T14:50:55.023Z,17.98
2023-03-08T14:53:35.586Z,18.70
2023-03-08T14:56:13.072Z,17.73
2023-03-08T14:58:49.059Z,21.80
2023-03-08T15:01:30.008Z,18.15
2023-03-08T15:03:59.936Z,20.68
2023-03-08T15:06:35.412Z,16.30
2023-03-08T15:09:07.383Z,18.00
2023-03-08T15:11:37.058Z,20.62
2023-03-08T15:14:06.517Z,17.15
2023-03-08T15:16:35.862Z,18.50
2023-03-08T15:19:05.573Z,22.80
2023-03-08T15:21:35.359Z,25.57
2023-03-08T15:24:05.282Z,24.98
2023-03-08T15:26:34.611Z,17.77
2023-03-08T15:29:04.165Z,17.57
2023-03-08T15:31:33.498Z,23.00
2023-03-08T15:34:02.958Z,22.87
2023-03-08T15:36:33.816Z,21.17
2023-03-08T15:39:04.633Z,20.65
2023-03-08T15:41:33.865Z,18.82
2023-03-08T15:44:03.240Z,20.40
2023-03-08T15:46:32.479Z,22.22
2023-03-08T15:49:01.863Z,24.23
2023-03-08T15:51:35.969Z,22.25
2023-03-08T15:54:06.603Z,20.20
2023-03-08T15:56:35.774Z,20.62
2023-03-08T15:59:05.034Z,20.62
2023-03-08T16:01:34.302Z,19.02
2023-03-08T16:04:04.411Z,21.27
2023-03-08T16:06:33.668Z,22.32
2023-03-08T16:09:03.271Z,23.95
2023-03-08T16:11:33.186Z,25.97
2023-03-08T16:14:02.801Z,35.25
2023-03-08T16:16:44.285Z,35.68
2023-03-08T16:19:03.070Z,32.38
2023-03-08T16:21:32.262Z,39.23
2023-03-08T16:24:02.707Z,29.67
2023-03-08T16:26:31.937Z,34.40
2023-03-08T16:29:01.775Z,33.48
2023-03-08T16:31:32.654Z,37.15
2023-03-08T16:34:06.480Z,37.15
2023-03-08T16:36:35.677Z,34.65
2023-03-08T16:39:06.257Z,41.20
2023-03-08T16:41:40.250Z,51.00
2023-03-08T16:44:27.278Z,50.78
2023-03-08T16:46:56.864Z,41.00
2023-03-08T16:49:27.819Z,45.63
2023-03-08T16:51:58.143Z,44.90
2023-03-08T16:54:27.504Z,42.62
2023-03-08T16:56:56.686Z,36.13
2023-03-08T16:59:26.089Z,41.35
2023-03-08T17:01:55.259Z,49.77
2023-03-08T17:04:24.789Z,58.95
2023-03-08T17:06:54.037Z,55.30
2023-03-08T17:09:23.633Z,52.27
2023-03-08T17:11:52.850Z,50.60
2023-03-08T17:14:22.953Z,51.83
2023-03-08T17:16:52.238Z,52.78
2023-03-08T17:19:21.474Z,53.52
2023-03-08T17:21:53.895Z,46.75
2023-03-08T17:26:53.021Z,56.10
2023-03-08T17:29:22.494Z,53.75
2023-03-08T17:31:52.584Z,54.65
2023-03-08T17:34:23.417Z,47.03
2023-03-08T17:36:53.382Z,64.92
2023-03-08T17:39:22.618Z,64.55
2023-03-08T17:41:51.816Z,52.40
2023-03-08T17:44:21.215Z,60.63
2023-03-08T17:46:50.413Z,66.95
2023-03-08T17:49:21.676Z,47.73
2023-03-08T17:51:52.047Z,42.93
2023-03-08T17:54:21.566Z,36.85
2023-03-08T17:56:50.956Z,39.10
2023-03-08T17:59:20.392Z,37.20
2023-03-08T18:01:50.167Z,37.80
2023-03-08T18:04:21.134Z,40.03
2023-03-08T18:06:50.488Z,42.38
2023-03-08T18:09:20.190Z,45.55
2023-03-08T18:11:50.159Z,43.85
2023-03-08T18:14:24.287Z,41.85
2023-03-08T18:16:50.918Z,41.18
2023-03-08T18:19:20.319Z,47.65
2023-03-08T18:21:51.186Z,47.58
2023-03-08T18:24:20.746Z,49.63
2023-03-08T18:26:49.963Z,42.80
2023-03-08T18:29:19.912Z,51.88
2023-03-08T18:31:49.138Z,45.05
2023-03-08T18:34:18.391Z,41.60
2023-03-08T18:36:47.647Z,44.20
2023-03-08T18:39:16.964Z,46.28
2023-03-08T18:41:46.674Z,48.70
2023-03-08T18:44:16.415Z,46.42
2023-03-08T18:46:45.911Z,50.88
2023-03-08T18:49:15.988Z,55.15
2023-03-08T18:51:45.368Z,58.35
2023-03-08T18:54:18.403Z,65.37
2023-03-08T18:56:50.194Z,68.67
2023-03-08T18:59:19.599Z,101.60
2023-03-08T19:01:52.326Z,75.00
2023-03-08T19:04:22.255Z,61.83
2023-03-08T19:06:52.195Z,78.62
2023-03-08T19:09:22.378Z,71.62
2023-03-08T19:11:52.863Z,67.00
2023-03-08T19:14:22.175Z,78.55
2023-03-08T19:16:52.159Z,73.52
2023-03-08T19:19:21.669Z,69.42
2023-03-08T19:21:51.021Z,65.15
2023-03-08T19:24:21.957Z,59.85
2023-03-08T19:26:53.499Z,64.77
2023-03-08T19:29:25.608Z,57.03
2023-03-08T19:32:00.759Z,60.60
2023-03-08T19:34:33.243Z,57.85
2023-03-08T19:37:04.443Z,53.78
2023-03-08T19:39:35.684Z,55.63
2023-03-08T19:42:10.923Z,51.55
2023-03-08T19:44:40.554Z,54.95
2023-03-08T19:47:11.493Z,50.48
2023-03-08T19:49:41.078Z,48.28
2023-03-08T19:52:14.045Z,54.60
2023-03-08T19:54:44.596Z,52.83
2023-03-08T19:57:14.002Z,52.00
2023-03-08T19:59:43.500Z,54.83
2023-03-08T20:02:14.243Z,56.55
2023-03-08T20:07:14.012Z,49.77
2023-03-08T20:09:43.546Z,50.45
2023-03-08T20:12:12.872Z,47.70
2023-03-08T20:14:42.262Z,48.23
2023-03-08T20:17:11.706Z,50.20
2023-03-08T20:19:41.325Z,53.00
2023-03-08T20:22:10.794Z,51.28
2023-03-08T20:24:40.246Z,55.90
2023-03-08T20:27:09.538Z,51.42
2023-03-08T20:29:39.213Z,51.18
2023-03-08T20:32:08.590Z,55.63
2023-03-08T20:34:38.703Z,50.00
2023-03-08T20:37:08.077Z,54.27
2023-03-08T20:39:37.589Z,52.83
2023-03-08T20:42:07.214Z,54.27
2023-03-08T20:44:36.647Z,51.88
2023-03-08T20:47:06.253Z,57.50
2023-03-08T20:49:35.731Z,55.58
2023-03-08T20:52:07.003Z,60.50
2023-03-08T20:54:36.514Z,57.85
2023-03-08T20:57:06.227Z,54.85
2023-03-08T20:59:35.695Z,58.28
2023-03-08T21:02:05.197Z,57.55
2023-03-08T21:04:35.072Z,58.80
2023-03-08T21:07:05.863Z,59.70
2023-03-08T21:09:35.352Z,61.23
2023-03-08T21:12:05.469Z,60.45
2023-03-08T21:14:34.935Z,59.05
2023-03-08T21:17:04.591Z,57.70
2023-03-08T21:19:34.005Z,58.55
2023-03-08T21:22:03.574Z,60.40
2023-03-08T21:24:33.022Z,59.65
2023-03-08T21:27:02.741Z,63.45
2023-03-08T21:29:32.264Z,65.50
2023-03-08T21:32:01.876Z,64.10
2023-03-08T21:34:31.226Z,64.22
2023-03-08T21:37:00.924Z,63.60
2023-03-08T21:39:30.390Z,66.65
2023-03-08T21:42:00.675Z,64.45
2023-03-08T21:44:31.970Z,68.33
2023-03-08T21:47:01.116Z,69.62
2023-03-08T21:49:33.578Z,67.58
2023-03-08T21:54:35.071Z,64.07
2023-03-08T21:57:04.440Z,67.42
2023-03-08T21:59:33.854Z,68.60
2023-03-08T22:02:06.067Z,67.15
2023-03-08T22:07:06.921Z,64.82
2023-03-08T22:09:36.146Z,64.62
2023-03-08T22:12:07.189Z,60.95
2023-03-08T22:14:36.926Z,64.23
2023-03-08T22:17:07.358Z,63.25
2023-03-08T22:19:36.617Z,60.10
2023-03-08T22:22:11.120Z,61.58
2023-03-08T22:24:45.038Z,64.55
2023-03-08T22:27:19.556Z,62.73
2023-03-08T22:29:50.554Z,62.75
2023-03-08T22:32:32.092Z,61.63
2023-03-08T22:35:01.770Z,59.07
2023-03-08T22:37:32.360Z,63.23
2023-03-08T22:40:09.964Z,61.23
2023-03-08T22:42:41.670Z,59.80
2023-03-08T22:45:16.598Z,62.17
2023-03-08T22:47:47.392Z,59.67
2023-03-08T22:50:18.286Z,59.33
2023-03-08T22:52:48.155Z,57.62
2023-03-08T22:55:17.866Z,61.10
2023-03-08T22:57:47.165Z,60.92
2023-03-08T23:00:17.262Z,58.38
2023-03-08T23:02:48.120Z,59.38
2023-03-08T23:05:20.344Z,64.10
2023-03-08T23:07:49.677Z,61.00
2023-03-08T23:10:19.100Z,64.53
2023-03-08T23:12:48.837Z,67.25
2023-03-08T23:15:18.200Z,68.42
2023-03-08T23:17:47.741Z,68.02
2023-03-08T23:20:18.922Z,69.67
2023-03-08T23:22:49.322Z,75.17
2023-03-08T23:25:19.815Z,68.72
2023-03-08T23:27:49.137Z,69.95
2023-03-08T23:30:18.662Z,68.25
2023-03-08T23:32:48.451Z,65.47
2023-03-08T23:35:17.983Z,65.92
2023-03-08T23:37:47.566Z,67.92
2023-03-08T23:40:16.958Z,67.03
2023-03-08T23:42:46.374Z,62.60
2023-03-08T23:45:15.601Z,64.15
2023-03-08T23:47:44.997Z,59.83
2023-03-08T23:50:14.249Z,59.90
2023-03-08T23:52:43.492Z,58.45
2023-03-08T23:55:13.328Z,62.27
2023-03-08T23:57:42.744Z,63.95
